createdAt,value
2018-08-11T06:10:52.069Z,1.90
2018-08-11T06:13:21.505Z,1.80
2018-08-11T06:15:50.911Z,1.80
2018-08-11T06:18:20.733Z,1.90
2018-08-11T06:20:50.625Z,1.83
2018-08-11T06:23:20.345Z,1.53
2018-08-11T06:25:50.077Z,1.80
2018-08-11T06:28:19.719Z,2.50
2018-08-11T06:30:49.447Z,2.60
2018-08-11T06:33:19.040Z,2.30
2018-08-11T06:35:48.523Z,2.30
2018-08-11T06:38:18.012Z,2.20
2018-08-11T06:40:47.843Z,2.10
2018-08-11T06:43:17.648Z,1.70
2018-08-11T06:45:47.153Z,2.03
2018-08-11T06:48:17.042Z,1.80
2018-08-11T06:50:46.558Z,1.70
2018-08-11T06:53:16.053Z,1.90
2018-08-11T06:55:45.983Z,1.60
2018-08-11T06:58:15.130Z,1.80
2018-08-11T07:00:45.156Z,1.87
2018-08-11T07:03:14.787Z,2.13
2018-08-11T07:05:44.363Z,1.80
2018-08-11T07:08:13.707Z,1.80
2018-08-11T07:10:43.725Z,1.80
2018-08-11T07:13:13.413Z,2.37
2018-08-11T07:15:43.183Z,1.97
2018-08-11T07:18:12.864Z,2.23
2018-08-11T07:20:42.392Z,1.80
2018-08-11T07:23:12.208Z,1.90
2018-08-11T07:25:42.245Z,2.10
2018-08-11T07:28:11.963Z,2.13
2018-08-11T07:30:41.752Z,2.07
2018-08-11T07:33:11.675Z,2.57
2018-08-11T07:35:41.283Z,2.53
2018-08-11T07:38:10.758Z,1.90
2018-08-11T07:40:40.609Z,1.80
2018-08-11T07:43:10.244Z,2.20
2018-08-11T07:45:39.781Z,2.00
2018-08-11T07:48:09.723Z,2.30
2018-08-11T07:50:39.527Z,1.90
2018-08-11T07:53:08.950Z,2.40
2018-08-11T07:55:38.895Z,2.00
2018-08-11T07:58:08.562Z,2.23
2018-08-11T08:00:38.192Z,2.70
2018-08-11T08:03:08.045Z,2.20
2018-08-11T08:05:37.509Z,2.50
2018-08-11T08:42:38.791Z,2.27
2018-08-11T08:45:10.303Z,2.23
2018-08-11T08:47:39.869Z,1.63
2018-08-11T08:50:09.415Z,1.80
2018-08-11T08:52:38.866Z,1.67
2018-08-11T08:55:08.588Z,1.93
2018-08-11T08:57:38.157Z,2.00
2018-08-11T09:00:07.714Z,2.20
2018-08-11T09:02:37.642Z,2.10
2018-08-11T09:05:07.152Z,1.90
2018-08-11T09:07:37.131Z,1.90
2018-08-11T09:10:07.234Z,1.67
2018-08-11T09:12:36.725Z,2.73
2018-08-11T09:15:07.213Z,2.50
2018-08-11T09:17:36.777Z,3.23
2018-08-11T09:20:07.325Z,2.13
2018-08-11T09:22:37.003Z,1.50
2018-08-11T09:25:07.711Z,1.40
2018-08-11T09:27:37.270Z,1.63
2018-08-11T09:30:07.418Z,1.57
2018-08-11T09:32:37.893Z,1.87
2018-08-11T09:35:07.802Z,2.13
2018-08-11T09:37:38.285Z,3.17
2018-08-11T09:40:08.526Z,3.27
2018-08-11T09:42:37.889Z,2.60
2018-08-11T09:45:07.882Z,1.60
2018-08-11T09:47:37.887Z,1.33
2018-08-11T09:50:07.278Z,1.20
2018-08-11T09:52:37.104Z,1.20
2018-08-11T09:55:06.820Z,1.20
2018-08-11T09:57:36.610Z,1.50
2018-08-11T10:00:08.394Z,3.10
2018-08-11T10:02:37.887Z,2.00
2018-08-11T10:05:07.394Z,1.60
2018-08-11T10:07:36.808Z,1.73
2018-08-11T10:10:06.780Z,1.60
2018-08-11T10:12:36.614Z,1.73
2018-08-11T10:15:06.584Z,1.77
2018-08-11T10:17:35.945Z,2.00
2018-08-11T10:20:05.650Z,2.40
2018-08-11T10:22:35.209Z,1.80
2018-08-11T10:25:04.837Z,2.27
2018-08-11T10:27:34.597Z,2.20
2018-08-11T10:30:04.502Z,2.00
2018-08-11T10:32:33.940Z,2.47
2018-08-11T10:35:04.202Z,2.37
2018-08-11T10:37:33.716Z,2.60
2018-08-11T11:54:50.864Z,4.00
2018-08-11T11:57:20.333Z,2.97
2018-08-11T11:59:49.467Z,3.30
2018-08-11T12:02:18.973Z,3.60
2018-08-11T12:04:48.652Z,3.60
2018-08-11T12:07:17.765Z,3.17
2018-08-11T12:09:47.385Z,2.80
2018-08-11T12:12:16.832Z,2.83
2018-08-11T12:15:02.241Z,2.30
2018-08-11T12:17:32.060Z,2.83
2018-08-11T12:20:01.674Z,2.77
2018-08-11T12:22:30.740Z,2.40
2018-08-11T12:25:00.309Z,2.50
2018-08-11T12:27:30.004Z,2.20
2018-08-11T12:29:59.147Z,2.03
2018-08-11T12:32:28.482Z,2.30
2018-08-11T12:34:58.188Z,2.50
2018-08-11T12:37:27.366Z,2.43
2018-08-11T12:39:56.638Z,2.20
2018-08-11T12:42:25.823Z,1.90
2018-08-11T12:44:55.127Z,2.43
2018-08-11T12:47:24.707Z,1.83
2018-08-11T12:49:54.042Z,1.20
2018-08-11T12:52:23.512Z,0.97
2018-08-11T12:54:53.532Z,1.43
2018-08-11T12:57:22.551Z,0.97
2018-08-11T12:59:51.593Z,0.90
2018-08-11T13:02:21.196Z,0.90
2018-08-11T13:04:50.562Z,0.70
2018-08-11T13:07:19.834Z,0.77
2018-08-11T13:09:49.089Z,0.90
2018-08-11T13:12:18.312Z,1.00
2018-08-11T13:14:47.568Z,0.87
2018-08-11T13:17:17.140Z,0.83
2018-08-11T13:19:50.016Z,0.80
2018-08-11T13:22:19.546Z,0.80
2018-08-11T13:24:49.285Z,1.10
2018-08-11T13:27:18.808Z,0.90
2018-08-11T13:29:48.387Z,0.80
2018-08-11T13:32:17.844Z,1.07
2018-08-11T13:34:47.411Z,0.90
2018-08-11T13:37:16.828Z,0.83
2018-08-11T13:39:51.368Z,0.90
2018-08-11T13:42:20.947Z,0.80
2018-08-11T13:44:50.554Z,0.80
2018-08-11T13:47:20.154Z,0.90
2018-08-11T13:49:49.749Z,0.80
